createdAt,value
2022-08-18T00:01:10.901Z,4.25
2022-08-18T00:03:55.811Z,4.38
2022-08-18T00:06:29.150Z,4.13
2022-08-18T00:09:01.408Z,4.65
2022-08-18T00:11:41.445Z,4.72
2022-08-18T00:14:14.586Z,4.72
2022-08-18T00:16:52.621Z,4.70
2022-08-18T00:19:43.551Z,4.82
2022-08-18T00:22:09.312Z,4.88
2022-08-18T00:24:47.467Z,4.53
2022-08-18T00:27:21.671Z,4.25
2022-08-18T00:29:50.326Z,4.60
2022-08-18T00:32:20.856Z,4.47
2022-08-18T00:34:49.009Z,4.60
2022-08-18T00:37:17.404Z,4.70
2022-08-18T00:39:48.053Z,4.60
2022-08-18T00:42:27.076Z,4.72
2022-08-18T00:45:00.429Z,4.85
2022-08-18T00:47:41.385Z,4.50
2022-08-18T00:50:15.083Z,4.55
2022-08-18T00:52:50.853Z,4.78
2022-08-18T00:55:22.600Z,5.03
2022-08-18T00:57:53.687Z,4.70
2022-08-18T01:00:22.989Z,4.30
2022-08-18T01:02:57.158Z,4.75
2022-08-18T01:05:32.210Z,4.75
2022-08-18T01:08:00.496Z,5.25
2022-08-18T01:10:30.086Z,4.60
2022-08-18T01:12:59.497Z,5.40
2022-08-18T01:15:30.429Z,5.25
2022-08-18T01:18:18.226Z,4.70
2022-08-18T01:21:09.176Z,4.90
2022-08-18T01:23:39.318Z,4.53
2022-08-18T01:26:09.154Z,4.55
2022-08-18T01:28:40.148Z,4.68
2022-08-18T01:31:09.372Z,4.65
2022-08-18T01:33:40.105Z,4.72
2022-08-18T01:36:14.392Z,4.53
2022-08-18T01:38:44.069Z,4.45
2022-08-18T01:41:28.474Z,4.68
2022-08-18T01:43:59.525Z,4.70
2022-08-18T01:46:29.068Z,4.30
2022-08-18T01:48:58.471Z,4.28
2022-08-18T01:51:39.431Z,4.35
2022-08-18T01:54:12.253Z,4.20
2022-08-18T01:56:42.168Z,4.50
2022-08-18T01:59:14.420Z,4.45
2022-08-18T02:01:48.702Z,4.05
2022-08-18T02:04:35.603Z,4.25
2022-08-18T02:07:07.530Z,3.88
2022-08-18T02:09:38.996Z,3.95
2022-08-18T02:12:08.998Z,4.20
2022-08-18T02:14:37.328Z,4.10
2022-08-18T02:17:07.931Z,4.00
2022-08-18T02:19:38.274Z,3.90
2022-08-18T02:22:07.364Z,3.95
2022-08-18T02:24:37.192Z,4.60
2022-08-18T02:27:06.074Z,4.00
2022-08-18T02:29:35.219Z,4.40
2022-08-18T02:32:03.397Z,4.30
2022-08-18T02:34:31.575Z,3.90
2022-08-18T02:37:00.533Z,4.32
2022-08-18T02:39:29.476Z,4.20
2022-08-18T02:41:59.244Z,4.07
2022-08-18T02:44:27.344Z,4.15
2022-08-18T02:46:56.200Z,3.67
2022-08-18T02:49:25.095Z,3.80
2022-08-18T02:51:53.905Z,4.13
2022-08-18T02:54:24.138Z,3.63
2022-08-18T02:56:53.638Z,3.67
2022-08-18T02:59:25.206Z,3.50
2022-08-18T03:01:55.844Z,3.90
2022-08-18T03:04:29.713Z,3.60
2022-08-18T03:07:01.255Z,3.35
2022-08-18T03:09:30.708Z,3.55
2022-08-18T03:11:59.791Z,3.58
2022-08-18T03:14:29.696Z,3.58
2022-08-18T03:16:58.360Z,3.55
2022-08-18T03:19:28.560Z,3.83
2022-08-18T03:21:59.471Z,3.20
2022-08-18T03:24:32.500Z,3.47
2022-08-18T03:27:02.239Z,3.63
2022-08-18T03:29:32.964Z,3.72
2022-08-18T03:32:02.133Z,3.85
2022-08-18T03:34:30.620Z,3.40
2022-08-18T03:36:59.417Z,3.30
2022-08-18T03:39:28.579Z,3.70
2022-08-18T03:42:01.079Z,3.35
2022-08-18T03:44:33.420Z,3.75
2022-08-18T03:47:02.964Z,3.70
2022-08-18T03:49:31.546Z,3.22
2022-08-18T03:52:00.652Z,3.40
2022-08-18T03:54:29.679Z,3.50
2022-08-18T03:56:58.421Z,3.63
2022-08-18T03:59:27.706Z,3.80
2022-08-18T04:01:57.379Z,3.40
2022-08-18T04:04:28.767Z,3.70
2022-08-18T04:06:59.060Z,3.22
2022-08-18T04:09:29.885Z,3.20
2022-08-18T04:11:59.506Z,3.80
2022-08-18T04:14:30.348Z,3.78
2022-08-18T04:17:00.313Z,3.78
2022-08-18T04:19:28.552Z,3.60
2022-08-18T04:21:58.378Z,3.90
2022-08-18T04:24:29.744Z,3.70
2022-08-18T04:27:02.586Z,3.78
2022-08-18T04:29:30.948Z,3.35
2022-08-18T04:32:03.960Z,3.55
2022-08-18T04:34:33.340Z,3.83
2022-08-18T04:37:02.197Z,3.70
2022-08-18T04:39:30.979Z,3.35
2022-08-18T04:42:01.513Z,3.40
2022-08-18T04:44:29.618Z,3.92
2022-08-18T04:46:57.817Z,3.83
2022-08-18T04:49:27.314Z,3.60
2022-08-18T04:52:30.879Z,3.95
2022-08-18T04:55:02.968Z,3.80
2022-08-18T04:57:34.107Z,3.85
2022-08-18T05:00:06.075Z,3.40
2022-08-18T05:02:34.987Z,3.90
2022-08-18T05:05:04.710Z,3.83
2022-08-18T05:07:33.740Z,4.18
2022-08-18T05:10:01.863Z,3.88
2022-08-18T05:12:30.054Z,3.58
2022-08-18T05:14:58.287Z,3.80
2022-08-18T05:17:30.658Z,3.90
2022-08-18T05:20:01.020Z,4.30
2022-08-18T05:22:32.052Z,4.45
2022-08-18T05:25:01.050Z,4.30
2022-08-18T05:27:33.856Z,4.20
2022-08-18T05:30:02.320Z,4.35
2022-08-18T05:32:47.998Z,4.20
2022-08-18T05:35:22.054Z,4.78
2022-08-18T05:38:04.333Z,4.63
2022-08-18T05:40:32.779Z,4.38
2022-08-18T05:43:02.399Z,4.30
2022-08-18T05:45:30.892Z,4.07
2022-08-18T05:48:01.158Z,4.75
2022-08-18T05:50:32.222Z,4.50
2022-08-18T05:53:13.523Z,4.88
2022-08-18T05:56:06.873Z,4.75
2022-08-18T05:58:39.905Z,4.90
2022-08-18T06:01:14.311Z,4.20
2022-08-18T06:03:48.919Z,5.03
2022-08-18T06:06:21.175Z,4.65
2022-08-18T06:09:06.353Z,5.45
2022-08-18T06:11:34.477Z,4.47
2022-08-18T06:14:02.674Z,4.65
2022-08-18T06:16:54.377Z,4.40
2022-08-18T06:19:39.006Z,5.45
2022-08-18T06:22:17.315Z,5.20
2022-08-18T06:24:56.744Z,4.65
2022-08-18T06:27:32.083Z,5.05
2022-08-18T06:30:17.389Z,4.90
2022-08-18T06:33:08.765Z,4.78
2022-08-18T06:35:40.801Z,4.68
2022-08-18T06:38:40.547Z,4.32
2022-08-18T06:41:41.541Z,4.60
2022-08-18T06:44:10.844Z,4.88
2022-08-18T06:46:44.142Z,4.13
2022-08-18T06:49:15.205Z,4.63
2022-08-18T06:51:43.593Z,4.50
2022-08-18T06:54:28.429Z,4.75
2022-08-18T06:56:59.441Z,4.88
2022-08-18T06:59:31.866Z,4.50
2022-08-18T07:02:03.395Z,4.28
2022-08-18T07:04:36.357Z,4.70
2022-08-18T07:07:18.445Z,4.50
2022-08-18T07:09:47.219Z,4.57
2022-08-18T07:12:25.822Z,4.88
2022-08-18T07:14:59.376Z,4.30
2022-08-18T07:17:42.134Z,4.97
2022-08-18T07:20:21.810Z,4.38
2022-08-18T07:22:59.813Z,4.68
2022-08-18T07:25:32.276Z,4.65
2022-08-18T07:28:02.807Z,4.40
2022-08-18T07:30:35.953Z,4.80
2022-08-18T07:33:14.342Z,5.10
2022-08-18T07:35:46.350Z,5.30
2022-08-18T07:38:41.467Z,5.07
2022-08-18T07:41:15.582Z,5.75
2022-08-18T07:43:55.098Z,5.68
2022-08-18T07:46:29.705Z,5.45
2022-08-18T07:48:59.427Z,5.47
2022-08-18T07:51:42.122Z,5.55
2022-08-18T07:54:47.163Z,5.50
2022-08-18T07:57:20.043Z,5.85
2022-08-18T07:59:57.662Z,6.25
2022-08-18T08:02:40.220Z,6.07
2022-08-18T08:05:15.045Z,6.88
2022-08-18T08:07:48.395Z,7.18
2022-08-18T08:10:29.259Z,7.60
2022-08-18T08:13:09.419Z,6.55
2022-08-18T08:15:54.111Z,7.03
2022-08-18T08:18:38.068Z,7.25
2022-08-18T08:21:10.997Z,7.78
2022-08-18T08:23:46.821Z,7.55
2022-08-18T08:26:27.999Z,7.80
2022-08-18T08:29:07.827Z,7.93
2022-08-18T08:31:45.360Z,8.40
2022-08-18T08:34:17.466Z,7.90
2022-08-18T08:36:48.149Z,8.35
2022-08-18T08:39:22.411Z,7.38
2022-08-18T08:41:57.851Z,7.55
2022-08-18T08:44:59.212Z,8.95
2022-08-18T08:47:33.871Z,8.40
2022-08-18T08:50:08.071Z,9.05
2022-08-18T08:52:42.129Z,9.90
2022-08-18T08:55:15.720Z,10.13
2022-08-18T08:57:50.139Z,10.05
2022-08-18T09:00:18.840Z,10.32
2022-08-18T09:03:12.382Z,9.75
2022-08-18T09:05:57.742Z,10.32
2022-08-18T09:08:53.464Z,11.63
2022-08-18T09:12:04.756Z,10.45
2022-08-18T09:15:05.381Z,11.10
2022-08-18T09:18:08.847Z,10.52
2022-08-18T09:20:51.107Z,11.73
2022-08-18T09:23:22.021Z,12.55
2022-08-18T09:25:53.229Z,12.63
2022-08-18T09:28:24.613Z,13.35
2022-08-18T09:31:10.877Z,14.88
2022-08-18T09:34:02.535Z,14.40
2022-08-18T09:36:48.831Z,16.17
2022-08-18T09:39:59.530Z,14.82
2022-08-18T09:42:50.098Z,18.40
2022-08-18T09:45:42.413Z,18.05
2022-08-18T09:48:29.165Z,19.70
2022-08-18T09:51:20.866Z,19.20
2022-08-18T09:54:14.530Z,19.95
2022-08-18T10:00:28.323Z,22.25
2022-08-18T10:03:13.622Z,20.13
2022-08-18T10:06:13.779Z,21.73
2022-08-18T10:09:18.006Z,18.65
2022-08-18T10:12:17.027Z,17.65
2022-08-18T10:15:27.187Z,17.10
2022-08-18T10:18:20.075Z,18.65
2022-08-18T10:20:57.765Z,18.95
2022-08-18T10:27:33.480Z,18.17
2022-08-18T10:30:01.948Z,17.13
2022-08-18T10:32:54.122Z,17.63
2022-08-18T10:35:58.449Z,19.13
2022-08-18T10:38:53.390Z,17.42
2022-08-18T10:41:30.822Z,16.92
2022-08-18T10:44:10.604Z,14.98
2022-08-18T10:46:49.749Z,15.82
2022-08-18T10:49:25.606Z,15.77
2022-08-18T10:52:10.174Z,16.00
2022-08-18T10:55:01.051Z,16.00
2022-08-18T10:57:38.131Z,16.42
2022-08-18T11:00:12.146Z,16.13
2022-08-18T11:03:02.625Z,18.17
2022-08-18T11:05:43.636Z,18.95
2022-08-18T11:08:18.499Z,19.67
2022-08-18T11:11:24.912Z,20.02
2022-08-18T11:13:51.137Z,21.90
2022-08-18T11:16:33.160Z,22.20
2022-08-18T11:19:09.562Z,22.80
2022-08-18T11:21:43.623Z,24.67
2022-08-18T11:24:16.459Z,24.80
2022-08-18T11:29:39.552Z,22.67
2022-08-18T11:32:12.599Z,23.25
2022-08-18T11:34:51.198Z,23.38
2022-08-18T11:37:27.019Z,22.77
2022-08-18T11:39:58.547Z,23.85
2022-08-18T11:42:33.228Z,22.83
2022-08-18T11:45:15.982Z,21.92
2022-08-18T11:48:03.663Z,20.30
2022-08-18T11:50:33.556Z,20.17
2022-08-18T11:53:18.785Z,19.30
2022-08-18T11:56:13.305Z,19.23
2022-08-18T11:58:45.988Z,18.08
2022-08-18T12:01:42.227Z,18.48
2022-08-18T12:04:25.750Z,18.35
2022-08-18T12:07:04.915Z,18.30
2022-08-18T12:12:30.601Z,16.85
2022-08-18T12:15:13.805Z,17.70
2022-08-18T12:17:52.466Z,17.45
2022-08-18T12:20:22.120Z,18.27
2022-08-18T12:22:52.158Z,17.83
2022-08-18T12:25:25.013Z,17.30
2022-08-18T12:27:54.122Z,17.90
2022-08-18T12:30:23.463Z,16.48
2022-08-18T12:33:04.872Z,16.33
2022-08-18T12:35:38.447Z,15.30
2022-08-18T12:38:13.931Z,15.60
2022-08-18T12:40:57.454Z,16.02
2022-08-18T12:43:26.181Z,16.65
2022-08-18T12:46:01.414Z,16.20
2022-08-18T12:48:32.144Z,15.93
2022-08-18T12:51:01.007Z,14.93
2022-08-18T12:53:57.830Z,14.55
2022-08-18T12:56:26.184Z,15.40
2022-08-18T12:58:55.432Z,15.45
2022-08-18T13:01:25.458Z,16.17
2022-08-18T13:04:11.604Z,14.32
2022-08-18T13:06:59.060Z,13.75
2022-08-18T13:09:42.840Z,13.25
2022-08-18T13:12:19.457Z,12.48
2022-08-18T13:14:49.768Z,12.68
2022-08-18T13:17:30.414Z,13.55
2022-08-18T13:20:05.603Z,13.45
2022-08-18T13:22:33.910Z,11.95
2022-08-18T13:25:05.386Z,11.48
2022-08-18T13:27:35.335Z,11.50
2022-08-18T13:30:30.103Z,11.48
2022-08-18T13:33:00.654Z,12.10
2022-08-18T13:35:38.521Z,11.35
2022-08-18T13:38:15.879Z,10.65
2022-08-18T13:40:48.521Z,9.88
2022-08-18T13:43:18.444Z,11.73
2022-08-18T13:45:53.292Z,10.25
2022-08-18T13:48:25.299Z,10.80
2022-08-18T13:50:56.749Z,9.93
2022-08-18T13:53:26.341Z,9.85
2022-08-18T13:55:58.781Z,10.35
2022-08-18T13:58:28.323Z,11.32
2022-08-18T14:01:22.530Z,11.70
2022-08-18T14:03:48.095Z,11.20
2022-08-18T14:06:22.136Z,10.52
2022-08-18T14:08:53.505Z,10.60
2022-08-18T14:11:27.939Z,10.18
2022-08-18T14:14:01.957Z,11.77
2022-08-18T14:16:30.970Z,10.38
2022-08-18T14:19:17.848Z,9.90
2022-08-18T14:22:06.971Z,10.00
2022-08-18T14:24:57.794Z,10.25
2022-08-18T14:27:28.942Z,10.27
2022-08-18T14:30:04.857Z,10.75
2022-08-18T14:32:36.422Z,10.20
2022-08-18T14:35:19.728Z,9.88
2022-08-18T14:37:57.114Z,9.90
2022-08-18T14:40:25.419Z,9.57
2022-08-18T14:42:55.625Z,10.13
2022-08-18T14:45:31.736Z,9.48
2022-08-18T14:48:07.573Z,10.07
2022-08-18T14:50:40.070Z,9.30
2022-08-18T14:53:15.139Z,9.05
2022-08-18T14:55:44.315Z,8.95
2022-08-18T14:58:12.702Z,7.10
2022-08-18T15:00:53.743Z,8.93
2022-08-18T15:03:30.936Z,8.63
2022-08-18T15:06:00.754Z,8.65
2022-08-18T15:08:35.234Z,7.05
2022-08-18T15:11:06.074Z,6.78
2022-08-18T15:13:43.409Z,6.93
2022-08-18T15:16:13.723Z,6.53
2022-08-18T15:18:42.212Z,6.45
2022-08-18T15:21:38.529Z,6.40
2022-08-18T15:24:26.817Z,6.38
2022-08-18T15:26:57.709Z,6.45
2022-08-18T15:29:29.140Z,6.35
2022-08-18T15:32:05.665Z,6.13
2022-08-18T15:34:46.408Z,6.00
2022-08-18T15:37:19.836Z,5.75
2022-08-18T15:39:55.872Z,5.45
2022-08-18T15:42:24.712Z,5.30
2022-08-18T15:44:53.905Z,5.22
2022-08-18T15:47:25.194Z,5.53
2022-08-18T15:49:54.796Z,6.35
2022-08-18T15:52:24.514Z,6.22
2022-08-18T15:54:58.252Z,5.53
2022-08-18T15:57:39.496Z,5.68
2022-08-18T16:00:12.099Z,5.38
2022-08-18T16:02:41.089Z,5.65
2022-08-18T16:05:17.749Z,5.50
2022-08-18T16:07:47.637Z,4.90
2022-08-18T16:10:19.198Z,4.78
2022-08-18T16:12:48.155Z,5.13
2022-08-18T16:15:19.923Z,4.95
2022-08-18T16:17:52.236Z,5.50
2022-08-18T16:20:23.498Z,5.30
2022-08-18T16:22:52.665Z,5.40
2022-08-18T16:25:22.312Z,5.43
2022-08-18T16:27:50.788Z,5.82
2022-08-18T16:30:22.980Z,6.20
2022-08-18T16:32:52.041Z,6.22
2022-08-18T16:35:21.284Z,13.05
2022-08-18T16:37:50.134Z,6.20
2022-08-18T16:40:20.204Z,6.22
2022-08-18T16:42:54.641Z,6.45
2022-08-18T16:45:23.183Z,6.25
2022-08-18T16:47:51.702Z,6.05
2022-08-18T16:50:20.110Z,6.07
2022-08-18T16:52:48.381Z,5.82
2022-08-18T16:55:16.644Z,5.88
2022-08-18T16:58:03.173Z,7.30
2022-08-18T17:00:55.266Z,8.05
2022-08-18T17:03:41.320Z,9.48
2022-08-18T17:06:12.370Z,9.30
2022-08-18T17:08:42.979Z,9.60
2022-08-18T17:11:13.777Z,9.75
2022-08-18T17:13:43.283Z,9.23
2022-08-18T17:16:13.983Z,9.45
2022-08-18T17:18:43.486Z,8.55
2022-08-18T17:21:15.029Z,9.20
2022-08-18T17:23:43.668Z,9.60
2022-08-18T17:26:21.502Z,8.98
2022-08-18T17:28:53.740Z,8.38
2022-08-18T17:31:25.921Z,7.82
2022-08-18T17:33:58.294Z,8.27
2022-08-18T17:36:34.698Z,7.97
2022-08-18T17:39:05.381Z,8.40
2022-08-18T17:41:55.917Z,7.95
2022-08-18T17:44:31.357Z,6.53
2022-08-18T17:47:03.726Z,6.35
2022-08-18T17:50:04.265Z,5.93
2022-08-18T17:52:53.450Z,7.38
2022-08-18T17:55:28.094Z,7.97
2022-08-18T17:58:01.948Z,7.93
2022-08-18T18:00:32.665Z,8.27
2022-08-18T18:03:02.234Z,9.82
2022-08-18T18:05:36.730Z,10.75
2022-08-18T18:08:06.194Z,10.73
2022-08-18T18:10:51.127Z,10.68
2022-08-18T18:13:28.954Z,11.70
2022-08-18T18:16:00.714Z,10.65
2022-08-18T18:18:36.799Z,11.07
2022-08-18T18:21:21.586Z,12.45
2022-08-18T18:23:54.827Z,12.20
2022-08-18T18:26:29.458Z,11.77
2022-08-18T18:29:13.748Z,10.85
2022-08-18T18:31:42.745Z,10.80
2022-08-18T18:34:23.262Z,11.63
2022-08-18T18:36:57.293Z,11.30
2022-08-18T18:39:33.129Z,11.82
2022-08-18T18:42:20.251Z,12.13
2022-08-18T18:44:53.908Z,12.18
2022-08-18T18:47:40.042Z,11.88
2022-08-18T18:50:16.478Z,11.70
2022-08-18T18:52:50.214Z,12.10
2022-08-18T18:55:24.118Z,11.32
2022-08-18T18:58:08.927Z,11.40
2022-08-18T19:00:53.440Z,11.30
2022-08-18T19:03:29.631Z,11.63
2022-08-18T19:06:14.337Z,10.50
2022-08-18T19:08:50.829Z,11.13
2022-08-18T19:11:29.023Z,9.60
2022-08-18T19:14:02.816Z,9.55
2022-08-18T19:16:41.078Z,8.57
2022-08-18T19:19:37.138Z,9.25
2022-08-18T19:22:08.547Z,8.25
2022-08-18T19:24:43.668Z,8.60
2022-08-18T19:27:23.441Z,8.30
2022-08-18T19:29:55.166Z,8.88
2022-08-18T19:32:32.108Z,8.75
2022-08-18T19:35:01.188Z,8.80
2022-08-18T19:38:19.165Z,8.38
2022-08-18T19:40:51.846Z,8.38
2022-08-18T19:43:27.437Z,8.90
2022-08-18T19:46:05.646Z,8.63
2022-08-18T19:48:44.066Z,9.52
2022-08-18T19:51:17.758Z,9.73
2022-08-18T19:54:01.123Z,10.48
2022-08-18T19:56:52.670Z,9.32
2022-08-18T19:59:42.218Z,9.70
2022-08-18T20:02:25.250Z,10.07
2022-08-18T20:05:10.165Z,10.73
2022-08-18T20:08:08.994Z,9.35
2022-08-18T20:11:15.045Z,9.93
2022-08-18T20:13:45.375Z,10.15
2022-08-18T20:16:31.378Z,9.68
2022-08-18T20:19:41.567Z,9.93
2022-08-18T20:22:16.277Z,9.85
2022-08-18T20:24:52.589Z,9.90
2022-08-18T20:27:34.979Z,9.68
2022-08-18T20:30:25.024Z,10.93
2022-08-18T20:33:33.921Z,14.55
2022-08-18T20:36:17.512Z,10.40
2022-08-18T20:38:47.379Z,9.95
2022-08-18T20:41:38.058Z,10.40
2022-08-18T20:44:40.637Z,10.02
2022-08-18T20:47:24.851Z,10.27
2022-08-18T20:50:10.564Z,10.32
2022-08-18T20:52:43.319Z,10.20
2022-08-18T20:55:20.813Z,9.95
2022-08-18T20:57:55.176Z,10.90
2022-08-18T21:00:27.753Z,10.32
2022-08-18T21:02:57.799Z,10.55
2022-08-18T21:05:29.155Z,10.90
2022-08-18T21:08:04.722Z,10.63
2022-08-18T21:10:34.537Z,10.45
2022-08-18T21:13:05.956Z,10.27
2022-08-18T21:15:38.620Z,10.35
2022-08-18T21:18:21.951Z,10.95
2022-08-18T21:20:51.174Z,10.18
2022-08-18T21:23:26.447Z,11.50
2022-08-18T21:25:59.078Z,10.65
2022-08-18T21:28:32.311Z,10.77
2022-08-18T21:31:42.481Z,11.20
2022-08-18T21:33:55.916Z,11.15
2022-08-18T21:36:31.615Z,11.25
2022-08-18T21:39:06.406Z,11.07
2022-08-18T21:41:42.081Z,10.55
2022-08-18T21:44:16.779Z,11.75
2022-08-18T21:46:47.535Z,12.63
2022-08-18T21:49:25.432Z,12.38
2022-08-18T21:51:54.135Z,11.77
2022-08-18T21:54:24.450Z,10.57
2022-08-18T21:57:23.440Z,11.05
2022-08-18T22:00:16.877Z,11.52
2022-08-18T22:02:49.655Z,12.15
2022-08-18T22:05:27.789Z,11.25
2022-08-18T22:07:56.226Z,11.70
2022-08-18T22:10:44.860Z,11.35
2022-08-18T22:13:39.747Z,11.30
2022-08-18T22:16:32.398Z,12.15
2022-08-18T22:19:22.878Z,12.52
2022-08-18T22:21:59.099Z,11.35
2022-08-18T22:24:36.085Z,11.45
2022-08-18T22:27:09.467Z,11.43
2022-08-18T22:29:45.758Z,11.75
2022-08-18T22:32:14.769Z,11.52
2022-08-18T22:34:44.733Z,11.75
2022-08-18T22:37:19.293Z,12.30
2022-08-18T22:39:51.041Z,13.32
2022-08-18T22:42:20.926Z,12.10
2022-08-18T22:44:49.657Z,12.98
2022-08-18T22:47:18.300Z,12.63
2022-08-18T22:49:47.905Z,11.93
2022-08-18T22:52:29.834Z,12.68
2022-08-18T22:54:58.619Z,14.25
2022-08-18T22:57:29.175Z,12.63
2022-08-18T22:59:58.201Z,12.43
2022-08-18T23:02:28.471Z,13.52
2022-08-18T23:04:57.957Z,14.77
2022-08-18T23:07:26.106Z,15.80
2022-08-18T23:09:54.250Z,12.63
2022-08-18T23:12:23.592Z,12.70
2022-08-18T23:14:51.698Z,11.82
2022-08-18T23:17:21.363Z,12.32
2022-08-18T23:19:52.151Z,13.18
2022-08-18T23:22:22.029Z,12.25
2022-08-18T23:24:50.155Z,12.30
2022-08-18T23:27:18.345Z,12.20
2022-08-18T23:29:46.520Z,12.73
2022-08-18T23:32:14.777Z,12.68
2022-08-18T23:34:42.930Z,12.50
2022-08-18T23:37:11.108Z,12.70
2022-08-18T23:39:41.851Z,12.65
2022-08-18T23:42:13.061Z,12.48
2022-08-18T23:44:42.233Z,12.30
2022-08-18T23:47:10.484Z,12.75
2022-08-18T23:49:39.006Z,12.25
2022-08-18T23:52:09.465Z,13.38
2022-08-18T23:54:37.610Z,12.98
2022-08-18T23:57:07.228Z,12.95
2022-08-18T23:59:35.422Z,13.10
